createdAt,value
2023-04-17T00:00:48.684Z,8.60
2023-04-17T00:06:53.973Z,8.60
2023-04-17T00:12:56.691Z,8.40
2023-04-17T00:18:58.460Z,8.40
2023-04-17T00:25:00.431Z,8.40
2023-04-17T00:31:02.270Z,8.40
2023-04-17T00:37:04.044Z,8.40
2023-04-17T00:43:07.145Z,8.30
2023-04-17T00:49:09.319Z,8.40
2023-04-17T00:55:11.612Z,8.30
2023-04-17T01:01:13.437Z,8.30
2023-04-17T01:07:15.557Z,8.30
2023-04-17T01:13:17.461Z,8.20
2023-04-17T01:19:19.655Z,8.20
2023-04-17T01:25:21.632Z,8.10
2023-04-17T01:31:25.620Z,8.00
2023-04-17T01:37:27.827Z,8.10
2023-04-17T01:43:29.652Z,8.00
2023-04-17T01:49:31.501Z,8.00
2023-04-17T01:55:33.271Z,8.00
2023-04-17T02:01:36.932Z,8.00
2023-04-17T02:07:38.808Z,8.10
2023-04-17T02:13:40.833Z,8.00
2023-04-17T02:19:42.643Z,8.00
2023-04-17T02:25:44.488Z,8.00
2023-04-17T02:31:46.623Z,8.20
2023-04-17T02:37:48.605Z,8.10
2023-04-17T02:43:50.425Z,8.10
2023-04-17T02:49:52.292Z,8.00
2023-04-17T02:55:54.112Z,8.00
2023-04-17T03:01:59.793Z,7.80
2023-04-17T03:08:01.896Z,7.80
2023-04-17T03:14:03.788Z,7.70
2023-04-17T03:20:08.041Z,7.70
2023-04-17T03:26:10.147Z,7.60
2023-04-17T03:32:12.069Z,7.50
2023-04-17T03:38:13.949Z,7.50
2023-04-17T03:44:17.364Z,7.40
2023-04-17T03:50:19.205Z,7.30
2023-04-17T03:56:21.871Z,7.40
2023-04-17T04:02:24.170Z,7.50
2023-04-17T04:08:26.468Z,7.50
2023-04-17T04:14:28.367Z,7.70
2023-04-17T04:20:30.826Z,7.50
2023-04-17T04:26:33.442Z,7.30
2023-04-17T04:32:36.891Z,7.20
2023-04-17T04:38:38.713Z,7.00
2023-04-17T04:44:40.709Z,7.00
2023-04-17T04:50:42.573Z,6.90
2023-04-17T04:56:45.084Z,6.90
2023-04-17T05:02:46.958Z,6.90
2023-04-17T05:08:49.194Z,6.90
2023-04-17T05:14:51.003Z,6.90
2023-04-17T05:20:52.773Z,6.90
2023-04-17T05:26:54.666Z,7.00
2023-04-17T05:32:56.709Z,7.00
2023-04-17T05:38:58.734Z,7.10
2023-04-17T05:45:00.613Z,7.30
2023-04-17T05:51:02.638Z,7.40
2023-04-17T05:57:04.430Z,7.50
2023-04-17T06:03:06.712Z,7.40
2023-04-17T06:09:10.430Z,7.60
2023-04-17T06:15:12.599Z,7.60
2023-04-17T06:21:14.908Z,7.60
2023-04-17T06:27:16.729Z,7.80
2023-04-17T06:33:18.496Z,7.80
2023-04-17T06:39:20.310Z,7.80
2023-04-17T06:45:22.201Z,7.90
2023-04-17T06:51:25.490Z,7.80
2023-04-17T06:57:27.293Z,8.10
2023-04-17T07:03:29.752Z,8.20
2023-04-17T07:09:32.050Z,8.20
2023-04-17T07:15:34.129Z,8.30
2023-04-17T07:21:36.144Z,8.60
2023-04-17T07:27:39.381Z,8.80
2023-04-17T07:33:41.310Z,8.90
2023-04-17T07:39:43.334Z,9.00
2023-04-17T07:45:45.118Z,9.00
2023-04-17T07:51:47.081Z,9.10
2023-04-17T07:57:51.627Z,9.30
2023-04-17T08:03:54.916Z,10.10
2023-04-17T08:09:57.070Z,10.20
2023-04-17T08:15:59.690Z,10.10
2023-04-17T08:22:04.419Z,10.60
2023-04-17T08:28:07.029Z,11.30
2023-04-17T08:34:14.383Z,10.90
2023-04-17T08:40:18.674Z,10.70
2023-04-17T08:46:24.504Z,11.40
2023-04-17T08:52:27.129Z,11.30
2023-04-17T08:58:35.897Z,11.50
2023-04-17T09:04:41.023Z,11.70
2023-04-17T09:10:45.933Z,12.30
2023-04-17T09:16:55.215Z,12.20
2023-04-17T09:23:05.544Z,12.80
2023-04-17T09:29:11.410Z,12.70
2023-04-17T09:35:26.028Z,12.50
2023-04-17T09:41:29.594Z,12.60
2023-04-17T09:47:31.827Z,12.50
2023-04-17T09:53:33.914Z,12.40
2023-04-17T09:59:47.038Z,13.30
2023-04-17T10:05:48.975Z,13.70
2023-04-17T10:11:51.897Z,13.70
2023-04-17T10:17:56.485Z,13.70
2023-04-17T10:23:59.685Z,13.20
2023-04-17T10:30:04.146Z,13.90
2023-04-17T10:36:06.378Z,14.30
2023-04-17T10:42:08.290Z,14.30
2023-04-17T10:48:21.177Z,13.90
2023-04-17T10:54:22.986Z,14.70
2023-04-17T11:00:38.977Z,14.70
2023-04-17T11:06:42.080Z,14.80
2023-04-17T11:12:48.262Z,14.90
2023-04-17T11:18:51.868Z,14.80
2023-04-17T11:24:53.852Z,14.80
2023-04-17T11:30:55.888Z,15.20
2023-04-17T11:37:01.275Z,15.40
2023-04-17T11:43:08.034Z,15.60
2023-04-17T11:49:10.293Z,15.40
2023-04-17T11:55:12.212Z,15.40
2023-04-17T12:01:14.199Z,14.90
2023-04-17T12:07:24.814Z,15.00
2023-04-17T12:13:26.699Z,15.00
2023-04-17T12:19:30.024Z,14.30
2023-04-17T12:25:33.349Z,14.30
2023-04-17T12:31:35.344Z,14.30
2023-04-17T12:37:37.222Z,13.90
2023-04-17T12:43:38.978Z,13.70
2023-04-17T12:49:40.755Z,14.50
2023-04-17T12:55:44.153Z,15.60
2023-04-17T13:01:46.563Z,15.50
2023-04-17T13:07:48.877Z,14.70
2023-04-17T13:13:50.783Z,14.10
2023-04-17T13:19:52.602Z,14.50
2023-04-17T13:25:54.866Z,14.10
2023-04-17T13:31:56.698Z,13.80
2023-04-17T13:38:02.267Z,13.50
2023-04-17T13:44:04.371Z,14.80
2023-04-17T13:50:06.870Z,15.40
2023-04-17T13:56:08.761Z,15.20
2023-04-17T14:02:11.074Z,15.30
2023-04-17T14:08:13.079Z,16.00
2023-04-17T14:14:14.861Z,16.00
2023-04-17T14:20:18.029Z,15.40
2023-04-17T14:26:19.970Z,15.00
2023-04-17T14:32:21.732Z,14.40
2023-04-17T14:38:24.533Z,13.90
2023-04-17T14:44:26.389Z,13.80
2023-04-17T14:50:28.289Z,14.00
2023-04-17T14:56:30.399Z,15.20
2023-04-17T15:02:38.400Z,15.60
2023-04-17T15:08:40.752Z,16.50
2023-04-17T15:14:42.504Z,16.30
2023-04-17T15:20:44.358Z,15.30
2023-04-17T15:26:46.297Z,14.80
2023-04-17T15:32:48.190Z,14.60
2023-04-17T15:38:50.088Z,15.30
2023-04-17T15:44:53.107Z,15.50
2023-04-17T15:50:55.478Z,15.80
2023-04-17T15:56:57.487Z,15.10
2023-04-17T16:02:59.350Z,14.90
2023-04-17T16:09:01.446Z,14.90
2023-04-17T16:15:03.235Z,14.50
2023-04-17T16:21:06.368Z,14.30
2023-04-17T16:27:08.782Z,14.10
2023-04-17T16:33:10.754Z,14.40
2023-04-17T16:39:13.127Z,14.50
2023-04-17T16:45:15.168Z,14.20
2023-04-17T16:51:16.976Z,13.60
2023-04-17T16:57:18.731Z,13.70
2023-04-17T17:03:20.724Z,13.70
2023-04-17T17:09:22.809Z,13.90
2023-04-17T17:15:25.040Z,13.70
2023-04-17T17:21:26.798Z,13.60
2023-04-17T17:27:28.726Z,13.60
2023-04-17T17:33:32.096Z,13.40
2023-04-17T17:39:34.271Z,13.40
2023-04-17T17:45:36.093Z,13.40
2023-04-17T17:51:37.951Z,13.10
2023-04-17T17:57:48.927Z,12.80
2023-04-17T18:03:51.363Z,12.60
2023-04-17T18:09:53.386Z,12.30
2023-04-17T18:15:55.251Z,12.10
2023-04-17T18:21:57.171Z,11.70
2023-04-17T18:27:58.916Z,11.60
2023-04-17T18:34:02.763Z,11.40
2023-04-17T18:40:07.247Z,11.10
2023-04-17T18:46:09.082Z,11.00
2023-04-17T18:52:11.348Z,10.90
2023-04-17T18:58:13.090Z,10.90
2023-04-17T19:04:15.296Z,10.60
2023-04-17T19:10:17.411Z,10.30
2023-04-17T19:16:19.304Z,10.40
2023-04-17T19:22:21.261Z,10.30
2023-04-17T19:28:24.094Z,10.30
2023-04-17T19:34:25.948Z,10.20
2023-04-17T19:40:27.954Z,10.20
2023-04-17T19:46:29.812Z,10.10
2023-04-17T19:52:31.627Z,10.20
2023-04-17T19:58:33.776Z,10.00
2023-04-17T20:04:35.544Z,9.90
2023-04-17T20:10:37.389Z,9.80
2023-04-17T20:16:39.190Z,9.70
2023-04-17T20:22:41.330Z,9.60
2023-04-17T20:28:43.194Z,9.50
2023-04-17T20:34:47.049Z,9.50
2023-04-17T20:40:48.836Z,9.30
2023-04-17T20:46:50.682Z,9.30
2023-04-17T20:52:52.747Z,9.20
2023-04-17T20:58:54.513Z,9.10
2023-04-17T21:04:56.284Z,9.00
2023-04-17T21:10:58.164Z,8.70
2023-04-17T21:17:00.417Z,8.60
2023-04-17T21:23:02.301Z,8.40
2023-04-17T21:29:04.255Z,8.20
2023-04-17T21:35:06.741Z,8.10
2023-04-17T21:41:09.283Z,7.90
2023-04-17T21:47:11.354Z,7.80
2023-04-17T21:53:13.208Z,7.80
2023-04-17T21:59:15.006Z,7.70
2023-04-17T22:05:16.920Z,7.70
2023-04-17T22:11:18.925Z,7.60
2023-04-17T22:17:20.740Z,7.50
2023-04-17T22:23:22.557Z,7.40
2023-04-17T22:29:24.365Z,7.30
2023-04-17T22:35:26.632Z,7.20
2023-04-17T22:41:28.383Z,7.20
2023-04-17T22:47:30.561Z,7.10
2023-04-17T22:53:32.982Z,7.10
2023-04-17T22:59:34.755Z,7.00
2023-04-17T23:05:36.629Z,7.10
2023-04-17T23:11:38.564Z,7.10
2023-04-17T23:17:40.288Z,7.20
2023-04-17T23:23:42.274Z,7.20
2023-04-17T23:29:44.057Z,7.20
2023-04-17T23:35:45.974Z,7.20
2023-04-17T23:41:47.924Z,7.30
2023-04-17T23:47:49.805Z,7.30
2023-04-17T23:53:51.618Z,7.20
2023-04-17T23:59:53.375Z,7.20
